Time;durP1;ratioP1;P1;durP2;ratioP2;P2;SDS_P1;SDS_P2;PMS_P1;PMS_P2;Temp;Humidity;BMP_temperature;BMP_pressure;BME280_temperature;BME280_humidity;BME280_pressure;Samples;Min_cycle;Max_cycle;Signal;HPM_P1;HPM_P2
2022/12/31 00:01:38;;;;;;;1.43;1.30;;;16.10;71.90;;;;;;5075013;28;20443;-88
2022/12/31 00:04:05;;;;;;;1.43;1.27;;;16.10;72.80;;;;;;5073258;28;20832;-88
2022/12/31 00:06:34;;;;;;;1.97;1.30;;;16.10;72.10;;;;;;5043257;28;21988;-90
2022/12/31 00:09:05;;;;;;;1.27;1.17;;;16.40;71.20;;;;;;5056610;28;20516;-90
2022/12/31 00:11:33;;;;;;;1.40;1.27;;;16.30;71.00;;;;;;5070500;28;20567;-89
2022/12/31 00:14:01;;;;;;;1.20;1.10;;;16.20;71.60;;;;;;5049472;28;20521;-88
2022/12/31 00:16:30;;;;;;;1.60;1.50;;;16.40;71.20;;;;;;5054838;28;20470;-92
2022/12/31 00:18:59;;;;;;;1.37;1.27;;;16.40;71.20;;;;;;5054045;28;20443;-89
2022/12/31 00:21:28;;;;;;;1.30;1.20;;;16.30;71.40;;;;;;5080728;28;20533;-90
2022/12/31 00:23:55;;;;;;;1.60;1.00;;;16.30;71.30;;;;;;5087385;28;20893;-89
2022/12/31 00:26:26;;;;;;;1.30;1.20;;;16.50;70.60;;;;;;5063350;28;20475;-89
2022/12/31 00:28:54;;;;;;;1.63;1.10;;;16.70;70.20;;;;;;5091301;28;20447;-89
2022/12/31 00:31:24;;;;;;;1.20;1.10;;;16.70;69.60;;;;;;5071348;28;20549;-89
2022/12/31 00:33:51;;;;;;;1.50;1.40;;;16.70;70.10;;;;;;5070816;27;20810;-90
2022/12/31 00:36:20;;;;;;;1.30;1.20;;;16.70;69.80;;;;;;5070975;28;20553;-90
2022/12/31 00:38:50;;;;;;;1.67;1.40;;;16.50;70.10;;;;;;5050503;27;21446;-89
2022/12/31 00:41:18;;;;;;;1.20;1.07;;;16.60;70.90;;;;;;5085704;28;20439;-91
2022/12/31 00:43:47;;;;;;;1.40;1.30;;;16.80;69.50;;;;;;5045017;27;20501;-89
2022/12/31 00:46:16;;;;;;;1.50;1.27;;;16.90;69.40;;;;;;5085896;28;20478;-89
2022/12/31 00:48:43;;;;;;;1.30;1.20;;;16.80;69.70;;;;;;5051255;28;20664;-90
2022/12/31 00:51:13;;;;;;;1.23;1.13;;;17.00;69.20;;;;;;5044018;28;20443;-88
2022/12/31 00:53:40;;;;;;;2.00;1.50;;;17.00;68.80;;;;;;5069225;28;20443;-90
2022/12/31 00:56:11;;;;;;;1.27;1.17;;;16.70;69.70;;;;;;5070485;28;20471;-88
2022/12/31 00:58:38;;;;;;;1.77;1.67;;;16.70;70.10;;;;;;5053363;28;20447;-89
2022/12/31 01:01:10;;;;;;;1.27;1.17;;;16.70;70.00;;;;;;5068964;28;20457;-89
2022/12/31 01:03:37;;;;;;;1.10;1.00;;;16.60;70.10;;;;;;5053996;27;20455;-89
2022/12/31 01:06:04;;;;;;;2.60;1.10;;;16.70;69.80;;;;;;5070364;28;20473;-91
2022/12/31 01:08:31;;;;;;;1.33;1.20;;;16.70;70.20;;;;;;5061628;28;20450;-89
2022/12/31 01:13:44;;;;;;;1.87;1.00;;;16.60;70.50;;;;;;5067446;28;20447;-91
2022/12/31 01:16:14;;;;;;;1.30;1.20;;;16.60;70.50;;;;;;5054213;28;20464;-89
2022/12/31 01:18:41;;;;;;;1.20;1.10;;;16.90;69.90;;;;;;5051164;28;20489;-89
2022/12/31 01:21:09;;;;;;;1.33;0.93;;;16.80;69.90;;;;;;5057188;28;20448;-92
2022/12/31 01:23:37;;;;;;;1.00;0.90;;;16.80;70.20;;;;;;5066556;28;20440;-90
2022/12/31 01:26:06;;;;;;;1.00;0.90;;;16.70;70.40;;;;;;5067598;28;20866;-89
2022/12/31 01:28:34;;;;;;;0.90;0.80;;;16.90;69.80;;;;;;5066367;28;20451;-90
2022/12/31 01:31:04;;;;;;;1.87;0.93;;;16.90;70.20;;;;;;5099237;28;20451;-92
2022/12/31 01:33:32;;;;;;;0.90;0.80;;;16.80;70.20;;;;;;5044387;28;20885;-89
2022/12/31 01:36:03;;;;;;;0.80;0.80;;;16.80;70.70;;;;;;5070098;28;20475;-90
2022/12/31 01:38:29;;;;;;;1.03;0.90;;;16.70;71.40;;;;;;5063861;28;20496;-89
2022/12/31 01:40:56;;;;;;;0.90;0.80;;;16.90;70.50;;;;;;5051941;28;20444;-89
2022/12/31 01:43:23;;;;;;;0.70;0.63;;;16.80;70.90;;;;;;5083158;28;20810;-89
2022/12/31 01:45:53;;;;;;;1.13;1.00;;;16.80;71.00;;;;;;5068384;28;20541;-89
2022/12/31 01:48:24;;;;;;;1.03;0.70;;;16.60;72.10;;;;;;5061454;28;20843;-88
2022/12/31 01:50:54;;;;;;;1.37;0.80;;;16.70;72.00;;;;;;5057802;28;20545;-90
2022/12/31 01:53:22;;;;;;;1.00;0.80;;;16.80;71.60;;;;;;5050566;28;20498;-89
2022/12/31 01:55:52;;;;;;;0.80;0.70;;;16.80;71.50;;;;;;5080324;28;20447;-89
2022/12/31 01:58:22;;;;;;;1.00;0.90;;;16.70;72.00;;;;;;5067776;28;20449;-90
2022/12/31 02:00:51;;;;;;;2.60;0.87;;;16.70;72.30;;;;;;5068206;28;21819;-90
2022/12/31 02:03:20;;;;;;;1.00;0.90;;;16.80;71.70;;;;;;5085949;28;20919;-90
2022/12/31 02:05:52;;;;;;;2.53;0.93;;;16.90;70.90;;;;;;5052402;28;20447;-89
2022/12/31 02:08:21;;;;;;;1.43;1.00;;;16.90;71.10;;;;;;5071614;28;20547;-89
2022/12/31 02:10:48;;;;;;;1.07;0.97;;;16.80;71.60;;;;;;5089698;28;20459;-89
2022/12/31 02:13:15;;;;;;;1.10;0.80;;;16.80;71.60;;;;;;5079204;28;20466;-89
2022/12/31 02:15:52;;;;;;;1.20;1.10;;;16.70;71.80;;;;;;5088697;28;21009;-91
2022/12/31 02:18:28;;;;;;;2.20;1.33;;;16.50;72.50;;;;;;5089112;28;20487;-89
2022/12/31 02:21:26;;;;;;;1.20;1.10;;;16.50;72.60;;;;;;5051123;27;20513;-89
2022/12/31 02:24:16;;;;;;;1.20;1.00;;;16.70;72.00;;;;;;5072312;28;20821;-89
2022/12/31 02:26:55;;;;;;;1.40;1.30;;;16.70;71.90;;;;;;5071099;28;20671;-91
2022/12/31 02:30:07;;;;;;;1.20;1.10;;;16.70;71.80;;;;;;5062035;28;20812;-89
2022/12/31 02:32:47;;;;;;;1.30;1.20;;;17.00;70.80;;;;;;5069583;27;20994;-89
2022/12/31 02:35:21;;;;;;;1.63;1.40;;;17.00;70.30;;;;;;5058734;28;20452;-89
2022/12/31 02:37:53;;;;;;;1.93;1.40;;;17.00;70.40;;;;;;5071053;27;20556;-89
2022/12/31 02:40:22;;;;;;;1.30;1.20;;;17.00;70.00;;;;;;5053040;28;20450;-90
2022/12/31 02:42:49;;;;;;;1.30;1.20;;;17.30;68.80;;;;;;5054983;28;20441;-92
2022/12/31 02:45:19;;;;;;;6.30;1.70;;;17.10;68.80;;;;;;5050863;28;20442;-88
2022/12/31 02:47:56;;;;;;;2.03;1.40;;;17.00;68.70;;;;;;5054198;28;20466;-89
2022/12/31 02:50:36;;;;;;;2.13;1.30;;;17.20;68.70;;;;;;5080766;28;20435;-90
2022/12/31 02:53:14;;;;;;;1.27;1.10;;;17.30;67.70;;;;;;5051492;28;20550;-88
2022/12/31 02:55:49;;;;;;;1.83;1.03;;;17.30;68.30;;;;;;5088040;28;20486;-89
2022/12/31 03:02:12;;;;;;;3.13;1.10;;;17.40;67.60;;;;;;5101920;28;20490;-90
2022/12/31 03:04:30;;;;;;;1.90;1.30;;;17.30;66.70;;;;;;5078252;28;20783;-92
2022/12/31 03:06:52;;;;;;;1.17;1.07;;;17.40;67.60;;;;;;5073463;28;20481;-89
2022/12/31 03:09:19;;;;;;;1.10;1.00;;;17.40;66.70;;;;;;5070975;28;20451;-90
2022/12/31 03:14:31;;;;;;;1.57;1.30;;;17.50;65.70;;;;;;5087227;28;20439;-90
2022/12/31 03:16:58;;;;;;;3.23;1.60;;;17.20;66.10;;;;;;5088197;28;20505;-90
2022/12/31 03:22:27;;;;;;;1.20;1.10;;;17.40;66.40;;;;;;5063073;28;20505;-88
2022/12/31 03:27:40;;;;;;;1.37;1.27;;;17.50;65.90;;;;;;5083374;28;20833;-90
2022/12/31 03:30:08;;;;;;;1.80;1.07;;;17.50;65.40;;;;;;5071128;28;20442;-90
2022/12/31 03:32:35;;;;;;;1.40;1.20;;;17.40;66.30;;;;;;5068835;28;20490;-93
2022/12/31 03:35:05;;;;;;;3.10;1.50;;;17.40;65.30;;;;;;5056478;28;20450;-89
2022/12/31 03:37:32;;;;;;;1.13;1.03;;;17.30;65.90;;;;;;5042878;28;20509;-90
2022/12/31 03:39:59;;;;;;;1.57;1.10;;;17.40;65.80;;;;;;5087409;28;20457;-88
2022/12/31 03:42:26;;;;;;;1.20;1.00;;;17.50;65.40;;;;;;5059352;28;21200;-90
2022/12/31 03:44:52;;;;;;;1.53;1.00;;;17.60;64.70;;;;;;5077491;28;20959;-91
2022/12/31 03:47:20;;;;;;;3.67;1.10;;;17.60;64.70;;;;;;5086831;28;20458;-90
2022/12/31 03:49:47;;;;;;;1.40;0.90;;;17.30;65.70;;;;;;5069493;27;20450;-89
2022/12/31 03:52:16;;;;;;;1.23;1.00;;;17.10;65.90;;;;;;5070121;28;20472;-89
2022/12/31 03:54:43;;;;;;;1.00;0.90;;;17.30;65.80;;;;;;5086186;27;20557;-89
2022/12/31 03:57:10;;;;;;;1.37;0.97;;;17.30;65.80;;;;;;5071163;28;20471;-92
2022/12/31 03:59:37;;;;;;;1.53;1.03;;;17.50;65.20;;;;;;5067851;28;20447;-88
2022/12/31 04:02:04;;;;;;;5.07;1.20;;;17.30;66.00;;;;;;5088622;28;20442;-89
2022/12/31 04:04:31;;;;;;;1.20;1.00;;;17.40;65.90;;;;;;5086601;28;20454;-90
2022/12/31 04:06:58;;;;;;;3.53;1.00;;;17.70;65.10;;;;;;5070858;27;20833;-90
2022/12/31 04:09:26;;;;;;;1.20;1.10;;;17.80;64.60;;;;;;5085188;28;20443;-90
2022/12/31 04:11:53;;;;;;;1.03;0.93;;;17.90;64.30;;;;;;5047480;28;20447;-89
2022/12/31 04:14:20;;;;;;;1.50;0.80;;;17.90;64.50;;;;;;5062626;28;20458;-90
2022/12/31 04:16:47;;;;;;;1.27;1.17;;;17.80;64.30;;;;;;5044662;28;20994;-90
2022/12/31 04:19:14;;;;;;;1.93;0.80;;;17.90;64.50;;;;;;5069841;28;20444;-89
2022/12/31 04:21:41;;;;;;;1.00;0.90;;;17.90;64.20;;;;;;5083932;28;20515;-90
2022/12/31 04:24:08;;;;;;;1.00;0.90;;;17.70;65.00;;;;;;5071323;28;20454;-88
2022/12/31 04:26:36;;;;;;;2.77;0.90;;;17.70;64.90;;;;;;5063063;28;21116;-91
2022/12/31 04:29:04;;;;;;;0.97;0.77;;;17.80;64.50;;;;;;5053189;28;20500;-90
2022/12/31 04:31:31;;;;;;;1.27;1.00;;;17.80;65.00;;;;;;5066254;28;20474;-93
2022/12/31 04:33:58;;;;;;;4.50;1.00;;;17.90;64.60;;;;;;5053938;28;20461;-90
2022/12/31 04:36:25;;;;;;;2.40;0.97;;;17.70;64.10;;;;;;5069075;28;20474;-90
2022/12/31 04:38:52;;;;;;;0.90;0.80;;;17.80;64.40;;;;;;5087284;28;20454;-89
2022/12/31 04:41:19;;;;;;;3.37;1.20;;;17.80;64.40;;;;;;5068807;28;20466;-90
2022/12/31 04:43:50;;;;;;;3.57;1.23;;;18.00;63.80;;;;;;5093895;27;20448;-90
2022/12/31 04:46:20;;;;;;;1.30;1.00;;;17.90;63.70;;;;;;5053084;28;20771;-89
2022/12/31 04:48:47;;;;;;;2.83;1.03;;;17.80;64.40;;;;;;5084008;28;20548;-90
2022/12/31 04:51:15;;;;;;;1.37;1.27;;;17.80;63.90;;;;;;5070452;28;20449;-89
2022/12/31 04:53:42;;;;;;;1.10;1.00;;;17.80;64.40;;;;;;5048098;28;20973;-89
2022/12/31 04:56:10;;;;;;;1.03;0.87;;;17.80;64.30;;;;;;5086683;28;20481;-89
2022/12/31 04:58:39;;;;;;;2.80;1.00;;;17.90;64.40;;;;;;5046975;28;20443;-90
2022/12/31 05:01:08;;;;;;;3.07;1.03;;;17.90;64.00;;;;;;5080160;28;20457;-90
2022/12/31 05:03:36;;;;;;;1.00;0.90;;;18.00;64.30;;;;;;5064554;28;20811;-90
2022/12/31 05:06:05;;;;;;;2.17;1.00;;;17.80;64.10;;;;;;5069797;28;20611;-88
2022/12/31 05:08:33;;;;;;;1.23;0.90;;;17.90;64.10;;;;;;5050935;28;20444;-89
2022/12/31 05:11:01;;;;;;;1.10;1.00;;;18.00;64.30;;;;;;5069095;28;20446;-91
2022/12/31 05:13:28;;;;;;;0.90;0.80;;;18.00;63.60;;;;;;5050653;28;20470;-91
2022/12/31 05:15:55;;;;;;;0.83;0.83;;;18.10;63.50;;;;;;5090924;27;20443;-89
2022/12/31 05:18:23;;;;;;;3.20;1.10;;;18.20;63.40;;;;;;5068811;28;20439;-87
2022/12/31 05:20:50;;;;;;;1.97;1.30;;;18.20;63.50;;;;;;5047415;28;20447;-89
2022/12/31 05:23:18;;;;;;;1.00;0.90;;;18.10;63.50;;;;;;5070818;28;20445;-90
2022/12/31 05:25:46;;;;;;;1.50;0.83;;;18.10;63.10;;;;;;5063725;28;20446;-90
2022/12/31 05:28:13;;;;;;;2.10;1.27;;;18.20;63.20;;;;;;5046149;28;20481;-91
2022/12/31 05:30:42;;;;;;;1.13;1.00;;;18.20;63.30;;;;;;5082003;28;21036;-89
2022/12/31 05:33:09;;;;;;;2.30;1.50;;;18.30;62.70;;;;;;5063389;28;20458;-90
2022/12/31 05:35:37;;;;;;;1.00;0.83;;;18.30;63.30;;;;;;5075002;28;20439;-89
2022/12/31 05:38:04;;;;;;;1.47;0.90;;;18.30;63.20;;;;;;5080480;28;20458;-90
2022/12/31 05:40:31;;;;;;;4.63;1.13;;;18.30;63.10;;;;;;5060389;28;21038;-89
2022/12/31 05:42:58;;;;;;;1.67;1.10;;;18.30;63.00;;;;;;5084193;28;20439;-89
2022/12/31 05:45:25;;;;;;;1.27;0.97;;;18.30;63.00;;;;;;5069232;28;20439;-89
2022/12/31 05:47:52;;;;;;;1.63;0.90;;;18.10;63.70;;;;;;5052357;28;20458;-89
2022/12/31 05:50:19;;;;;;;2.27;1.30;;;18.10;63.50;;;;;;5085517;28;20457;-88
2022/12/31 05:52:55;;;;;;;2.03;0.80;;;18.10;63.70;;;;;;5084517;28;20930;-91
2022/12/31 05:55:22;;;;;;;2.20;1.33;;;18.10;64.10;;;;;;5063773;28;20629;-90
2022/12/31 05:57:49;;;;;;;1.70;1.00;;;18.10;63.70;;;;;;5083634;28;20561;-89
2022/12/31 06:00:17;;;;;;;2.27;1.20;;;18.20;64.10;;;;;;5069682;28;20449;-90
2022/12/31 06:02:45;;;;;;;0.87;0.87;;;18.30;63.40;;;;;;5085037;28;20454;-90
2022/12/31 06:05:12;;;;;;;1.20;1.03;;;18.40;62.90;;;;;;5086027;28;20693;-90
2022/12/31 06:07:39;;;;;;;1.80;1.10;;;18.50;62.40;;;;;;5049859;28;20485;-89
2022/12/31 06:10:08;;;;;;;1.07;0.97;;;18.40;62.70;;;;;;5068483;28;20454;-91
2022/12/31 06:12:36;;;;;;;2.80;0.80;;;18.30;63.60;;;;;;5048440;28;20850;-89
2022/12/31 06:15:03;;;;;;;3.03;1.00;;;18.20;63.80;;;;;;5053011;28;20982;-91
2022/12/31 06:17:31;;;;;;;2.30;1.00;;;18.00;64.40;;;;;;5051162;28;20562;-89
2022/12/31 06:19:59;;;;;;;3.10;1.70;;;17.90;64.50;;;;;;5061897;28;20804;-89
2022/12/31 06:22:26;;;;;;;1.00;0.90;;;18.00;64.70;;;;;;5075717;28;20442;-90
2022/12/31 06:24:53;;;;;;;1.00;0.90;;;17.90;64.80;;;;;;5051734;28;20474;-90
2022/12/31 06:27:21;;;;;;;2.30;0.87;;;17.90;64.50;;;;;;5067956;28;20469;-89
2022/12/31 06:29:49;;;;;;;1.10;1.00;;;18.10;64.20;;;;;;5052118;28;20451;-89
2022/12/31 06:32:17;;;;;;;2.30;1.60;;;18.00;64.50;;;;;;5053172;28;20447;-89
2022/12/31 06:34:44;;;;;;;1.10;1.00;;;18.20;63.60;;;;;;5053028;28;20523;-91
2022/12/31 06:37:11;;;;;;;1.90;1.30;;;18.20;63.50;;;;;;5051667;28;20465;-89
2022/12/31 06:39:38;;;;;;;1.60;1.30;;;18.30;63.60;;;;;;5080566;28;20458;-89
2022/12/31 06:42:05;;;;;;;1.10;0.97;;;18.30;63.30;;;;;;5081571;28;20454;-89
2022/12/31 06:44:34;;;;;;;1.30;1.03;;;18.50;62.80;;;;;;5062231;28;20431;-90
2022/12/31 06:47:00;;;;;;;3.23;1.70;;;18.60;62.70;;;;;;5067805;28;20450;-89
2022/12/31 06:49:27;;;;;;;1.00;0.90;;;18.70;62.00;;;;;;5084397;28;20819;-89
2022/12/31 06:51:54;;;;;;;0.90;0.80;;;18.80;61.80;;;;;;5084701;28;20446;-92
2022/12/31 06:54:21;;;;;;;1.93;1.00;;;18.60;61.80;;;;;;5069956;28;20478;-89
2022/12/31 06:56:49;;;;;;;1.20;0.90;;;18.50;62.30;;;;;;5054886;28;20466;-91
2022/12/31 06:59:28;;;;;;;1.57;1.10;;;18.30;62.70;;;;;;5071155;28;20443;-91
2022/12/31 07:02:10;;;;;;;1.33;1.10;;;18.40;62.60;;;;;;5067491;28;20943;-89
2022/12/31 07:05:12;;;;;;;2.40;0.90;;;18.70;62.00;;;;;;5076998;28;20457;-90
2022/12/31 07:07:49;;;;;;;2.57;1.10;;;18.60;62.40;;;;;;5052574;28;20475;-89
2022/12/31 07:10:25;;;;;;;1.20;0.90;;;18.60;62.50;;;;;;5075131;28;20443;-89
2022/12/31 07:13:18;;;;;;;1.03;0.93;;;18.40;62.70;;;;;;5084328;28;20438;-90
2022/12/31 07:15:58;;;;;;;1.03;0.93;;;18.50;62.80;;;;;;5071760;28;20454;-90
2022/12/31 07:18:36;;;;;;;3.00;1.40;;;18.80;62.10;;;;;;5052688;28;20885;-88
2022/12/31 07:21:03;;;;;;;1.73;1.10;;;18.70;61.80;;;;;;5076868;28;22100;-87
2022/12/31 07:23:31;;;;;;;2.10;1.30;;;18.90;61.50;;;;;;5071219;28;20839;-90
2022/12/31 07:26:04;;;;;;;2.33;1.40;;;18.80;61.60;;;;;;5107014;27;20453;-89
2022/12/31 07:28:47;;;;;;;1.20;1.10;;;18.80;61.60;;;;;;5071876;28;20829;-91
2022/12/31 07:31:24;;;;;;;1.73;1.30;;;18.80;61.50;;;;;;5070779;28;20520;-90
2022/12/31 07:33:59;;;;;;;1.40;1.30;;;18.90;61.30;;;;;;5046389;28;20458;-89
2022/12/31 07:36:44;;;;;;;1.90;0.93;;;19.00;61.10;;;;;;5068917;28;20474;-89
2022/12/31 07:39:16;;;;;;;1.10;1.00;;;18.90;60.70;;;;;;5070121;28;20878;-88
2022/12/31 07:41:52;;;;;;;1.63;0.97;;;19.00;60.80;;;;;;5053206;28;20451;-89
2022/12/31 07:44:34;;;;;;;2.17;1.20;;;18.80;61.80;;;;;;5070574;28;20545;-89
2022/12/31 07:47:04;;;;;;;5.23;1.50;;;18.80;62.00;;;;;;5105252;28;20519;-89
2022/12/31 07:49:34;;;;;;;1.87;1.70;;;18.90;61.60;;;;;;5071718;28;20802;-89
2022/12/31 07:52:02;;;;;;;1.27;1.00;;;18.90;60.90;;;;;;5056299;28;20623;-89
2022/12/31 07:54:29;;;;;;;1.43;1.20;;;19.10;61.10;;;;;;5069881;28;20479;-89
2022/12/31 07:56:57;;;;;;;1.40;1.10;;;19.10;60.40;;;;;;5104405;28;20474;-91
2022/12/31 07:59:41;;;;;;;1.20;1.10;;;19.00;60.80;;;;;;5085843;28;20446;-89
2022/12/31 08:02:18;;;;;;;5.20;1.60;;;19.00;61.10;;;;;;5098874;28;20443;-89
2022/12/31 08:04:56;;;;;;;1.57;1.10;;;19.10;60.30;;;;;;5079486;28;20436;-89
2022/12/31 08:07:33;;;;;;;1.27;1.17;;;19.10;60.00;;;;;;5089004;28;20450;-89
2022/12/31 08:10:06;;;;;;;3.90;2.60;;;19.10;60.20;;;;;;5076671;27;20529;-87
2022/12/31 08:12:36;;;;;;;5.60;4.53;;;19.20;60.50;;;;;;5059096;28;20471;-90
2022/12/31 08:15:11;;;;;;;8.73;5.30;;;19.30;59.80;;;;;;5072864;28;20467;-89
2022/12/31 08:17:38;;;;;;;41.30;31.70;;;19.40;59.60;;;;;;5075161;28;20477;-89
2022/12/31 08:20:12;;;;;;;12.93;10.03;;;19.50;59.50;;;;;;5055267;27;20963;-89
2022/12/31 08:22:53;;;;;;;5.53;5.07;;;19.50;59.60;;;;;;5055212;28;20461;-87
2022/12/31 08:25:27;;;;;;;1.20;1.10;;;19.30;59.80;;;;;;5066027;28;20448;-89
2022/12/31 08:28:11;;;;;;;1.20;1.10;;;19.00;61.00;;;;;;5056184;28;20470;-89
2022/12/31 08:30:59;;;;;;;3.20;1.30;;;19.00;61.00;;;;;;5069998;28;20529;-88
2022/12/31 08:33:33;;;;;;;2.07;1.10;;;19.00;60.80;;;;;;5089754;28;20453;-89
2022/12/31 08:36:14;;;;;;;1.20;0.97;;;18.90;61.50;;;;;;5054860;28;20442;-88
2022/12/31 08:38:49;;;;;;;2.43;1.47;;;18.90;61.70;;;;;;5051402;28;20574;-88
2022/12/31 08:41:23;;;;;;;1.43;1.10;;;18.90;60.90;;;;;;5054967;28;20446;-89
2022/12/31 08:43:56;;;;;;;3.40;1.53;;;19.00;61.20;;;;;;5091860;28;21119;-89
2022/12/31 08:46:28;;;;;;;2.33;1.20;;;19.10;61.20;;;;;;5057302;28;20715;-89
2022/12/31 08:48:55;;;;;;;1.60;1.50;;;18.70;61.40;;;;;;5070843;28;20491;-89
2022/12/31 08:51:26;;;;;;;1.50;1.03;;;18.70;61.90;;;;;;5103587;28;20454;-89
2022/12/31 08:53:54;;;;;;;2.00;1.40;;;18.80;62.00;;;;;;5070799;28;20566;-88
2022/12/31 08:56:28;;;;;;;2.30;1.50;;;18.80;61.30;;;;;;5053492;28;20462;-91
2022/12/31 08:59:07;;;;;;;2.20;1.20;;;18.80;61.30;;;;;;5061460;28;20470;-89
2022/12/31 09:01:44;;;;;;;1.03;0.93;;;18.80;61.30;;;;;;5107356;27;20438;-88
2022/12/31 09:04:20;;;;;;;1.17;1.07;;;18.90;60.50;;;;;;5055363;28;20447;-89
2022/12/31 09:06:54;;;;;;;3.43;1.67;;;19.10;60.00;;;;;;5057163;28;20478;-89
2022/12/31 09:09:28;;;;;;;1.40;1.30;;;19.30;60.00;;;;;;5065953;28;20450;-91
2022/12/31 09:12:04;;;;;;;2.07;1.20;;;19.40;60.00;;;;;;5087623;27;20450;-88
2022/12/31 09:14:42;;;;;;;6.67;2.87;;;19.30;59.70;;;;;;5078712;28;20459;-89
2022/12/31 09:17:25;;;;;;;1.30;1.00;;;19.40;59.70;;;;;;5071914;27;20485;-89
2022/12/31 09:19:53;;;;;;;3.03;2.63;;;19.30;60.00;;;;;;5075566;27;20450;-88
2022/12/31 09:22:22;;;;;;;2.33;1.97;;;19.40;60.10;;;;;;5073342;28;20488;-90
2022/12/31 09:24:49;;;;;;;5.57;1.83;;;19.40;59.70;;;;;;5089614;28;20522;-88
2022/12/31 09:27:22;;;;;;;2.27;1.93;;;19.30;59.90;;;;;;5092036;28;20963;-89
2022/12/31 09:29:57;;;;;;;1.70;1.37;;;19.30;60.10;;;;;;5072728;28;20887;-88
2022/12/31 09:32:33;;;;;;;2.83;1.57;;;19.40;59.40;;;;;;5088772;28;20466;-89
2022/12/31 09:35:06;;;;;;;2.77;1.73;;;19.50;59.10;;;;;;5071300;27;20833;-88
2022/12/31 09:37:45;;;;;;;1.30;0.90;;;19.40;59.40;;;;;;5083659;28;20492;-89
2022/12/31 09:40:46;;;;;;;3.17;1.70;;;19.40;59.20;;;;;;5071813;28;20453;-86
2022/12/31 09:44:07;;;;;;;5.50;1.10;;;19.80;58.90;;;;;;5070148;28;20454;-87
2022/12/31 09:47:08;;;;;;;1.83;1.30;;;19.60;58.50;;;;;;5084795;28;20463;-87
2022/12/31 09:50:17;;;;;;;2.03;1.80;;;19.30;59.10;;;;;;5052328;28;20816;-88
2022/12/31 09:53:09;;;;;;;2.83;1.23;;;19.10;59.80;;;;;;5074463;28;20456;-86
2022/12/31 09:55:44;;;;;;;1.77;1.63;;;19.20;59.50;;;;;;5055703;28;20447;-88
2022/12/31 09:58:26;;;;;;;1.87;1.27;;;19.50;59.40;;;;;;5072577;28;20460;-88
2022/12/31 10:00:58;;;;;;;1.30;1.20;;;19.50;58.70;;;;;;5086438;28;20449;-88
2022/12/31 10:03:51;;;;;;;1.43;0.87;;;19.70;59.10;;;;;;5086916;28;20465;-88
2022/12/31 10:06:28;;;;;;;3.10;1.23;;;19.70;58.70;;;;;;5084965;28;20477;-90
2022/12/31 10:09:20;;;;;;;2.70;1.20;;;19.40;59.10;;;;;;5053957;28;20783;-88
2022/12/31 10:12:04;;;;;;;2.47;1.90;;;19.40;59.30;;;;;;5073355;28;20447;-88
2022/12/31 10:14:47;;;;;;;2.30;1.70;;;19.50;58.90;;;;;;5087143;28;20466;-89
2022/12/31 10:17:30;;;;;;;1.53;1.20;;;19.60;58.90;;;;;;5070516;28;20506;-89
2022/12/31 10:20:25;;;;;;;1.70;1.20;;;19.40;59.40;;;;;;5048100;28;20439;-89
2022/12/31 10:23:14;;;;;;;7.13;3.90;;;19.30;59.30;;;;;;5071031;28;20948;-91
2022/12/31 10:26:01;;;;;;;6.20;3.00;;;19.40;58.90;;;;;;5052936;28;20823;-90
2022/12/31 10:28:37;;;;;;;2.30;1.97;;;19.40;58.50;;;;;;5071865;28;20537;-86
2022/12/31 10:31:14;;;;;;;12.47;7.20;;;19.50;59.00;;;;;;5056672;28;20983;-91
2022/12/31 10:33:44;;;;;;;5.93;3.93;;;19.60;58.30;;;;;;5068777;28;20488;-91
2022/12/31 10:36:19;;;;;;;5.30;2.57;;;19.50;58.40;;;;;;5071498;27;20473;-89
2022/12/31 10:38:54;;;;;;;3.77;1.20;;;19.40;58.50;;;;;;5089775;28;20454;-89
2022/12/31 10:41:54;;;;;;;14.30;7.30;;;19.30;59.00;;;;;;5102449;28;20442;-88
2022/12/31 10:45:01;;;;;;;6.70;4.10;;;19.20;58.10;;;;;;5070676;28;20447;-89
2022/12/31 10:48:19;;;;;;;2.60;1.93;;;19.40;58.10;;;;;;5072367;28;20473;-87
2022/12/31 10:51:23;;;;;;;6.60;5.53;;;19.30;59.00;;;;;;5091177;28;20450;-88
2022/12/31 10:54:18;;;;;;;3.03;1.47;;;19.40;58.30;;;;;;5061258;28;20438;-88
2022/12/31 10:57:11;;;;;;;2.17;1.33;;;19.30;57.80;;;;;;5050950;28;20467;-87
2022/12/31 11:00:16;;;;;;;2.17;1.40;;;19.40;58.30;;;;;;5084932;28;20475;-88
2022/12/31 11:03:24;;;;;;;3.83;1.97;;;19.70;57.10;;;;;;5045009;28;20930;-88
2022/12/31 11:06:35;;;;;;;5.83;2.10;;;19.80;57.10;;;;;;5055543;28;20526;-87
2022/12/31 11:09:32;;;;;;;2.90;1.53;;;19.80;56.50;;;;;;5087978;28;20430;-89
2022/12/31 11:12:10;;;;;;;2.07;1.40;;;19.90;57.00;;;;;;5073075;27;20447;-88
2022/12/31 11:14:57;;;;;;;2.00;1.40;;;20.00;56.90;;;;;;5089941;28;20466;-88
2022/12/31 11:17:34;;;;;;;1.23;1.00;;;19.80;56.20;;;;;;5084214;28;21466;-88
2022/12/31 11:20:19;;;;;;;1.37;1.27;;;19.80;57.50;;;;;;5070300;28;20842;-88
2022/12/31 11:22:58;;;;;;;3.40;1.40;;;19.60;57.60;;;;;;5065619;28;20449;-88
2022/12/31 11:25:40;;;;;;;1.87;1.07;;;19.50;57.60;;;;;;5051314;28;20538;-88
2022/12/31 11:28:42;;;;;;;3.13;1.83;;;19.70;57.00;;;;;;5086734;28;20448;-89
2022/12/31 11:31:19;;;;;;;5.10;1.93;;;19.80;56.60;;;;;;5077972;27;20457;-89
2022/12/31 11:34:09;;;;;;;1.57;1.40;;;19.90;57.00;;;;;;5083358;28;20858;-89
2022/12/31 11:36:44;;;;;;;2.00;1.27;;;20.20;55.90;;;;;;5063675;28;20880;-91
2022/12/31 11:39:26;;;;;;;3.10;1.30;;;19.90;56.20;;;;;;5051841;28;20617;-89
2022/12/31 11:41:56;;;;;;;1.73;1.10;;;19.90;56.10;;;;;;5052427;27;20458;-87
2022/12/31 11:44:34;;;;;;;4.27;1.37;;;20.10;56.00;;;;;;5059172;28;20451;-87
2022/12/31 11:47:13;;;;;;;1.93;1.30;;;20.20;56.00;;;;;;5086791;28;20470;-89
2022/12/31 11:49:59;;;;;;;1.30;1.20;;;20.00;56.70;;;;;;5069268;28;20793;-88
2022/12/31 11:52:43;;;;;;;1.90;1.57;;;20.10;56.40;;;;;;5069441;28;20457;-88
2022/12/31 11:55:26;;;;;;;1.53;1.30;;;20.30;56.20;;;;;;5075510;28;20477;-89
2022/12/31 11:57:53;;;;;;;1.40;1.30;;;20.50;55.60;;;;;;5053067;28;20515;-89
2022/12/31 12:00:23;;;;;;;4.00;2.00;;;20.50;55.50;;;;;;5070490;28;20459;-89
2022/12/31 12:02:53;;;;;;;10.50;1.70;;;20.50;55.60;;;;;;5086339;28;20443;-89
2022/12/31 12:05:24;;;;;;;2.30;1.53;;;20.70;55.00;;;;;;5055290;28;20524;-89
2022/12/31 12:07:52;;;;;;;1.33;1.00;;;20.80;54.90;;;;;;5087656;28;20474;-89
2022/12/31 12:10:23;;;;;;;3.47;1.13;;;20.60;54.70;;;;;;5070854;28;20455;-89
2022/12/31 12:12:51;;;;;;;1.87;1.50;;;20.60;55.00;;;;;;5061161;28;20458;-89
2022/12/31 12:15:25;;;;;;;1.30;1.20;;;20.70;54.80;;;;;;5054445;27;20465;-90
2022/12/31 12:17:57;;;;;;;2.30;1.10;;;20.70;54.30;;;;;;5082241;28;20912;-90
2022/12/31 12:20:30;;;;;;;1.90;1.13;;;20.70;55.10;;;;;;5049783;28;20458;-87
2022/12/31 12:22:59;;;;;;;2.43;1.57;;;20.70;55.10;;;;;;5083444;27;20446;-90
2022/12/31 12:25:36;;;;;;;1.03;0.93;;;21.00;54.30;;;;;;5068028;28;20524;-88
2022/12/31 12:28:18;;;;;;;3.57;1.73;;;21.00;54.40;;;;;;5068151;28;20910;-90
2022/12/31 12:30:54;;;;;;;2.23;1.47;;;21.00;54.30;;;;;;5059678;28;20426;-89
2022/12/31 12:33:22;;;;;;;5.53;1.30;;;21.10;53.90;;;;;;5068790;28;20463;-90
2022/12/31 12:35:49;;;;;;;2.07;1.30;;;21.20;54.00;;;;;;5069992;28;20478;-89
2022/12/31 12:38:18;;;;;;;1.33;1.20;;;21.30;53.00;;;;;;5071411;28;20459;-89
2022/12/31 12:40:55;;;;;;;1.53;1.10;;;21.40;53.30;;;;;;5081535;28;20456;-89
2022/12/31 12:43:25;;;;;;;2.43;1.20;;;21.70;53.60;;;;;;5053346;28;20461;-88
2022/12/31 12:45:57;;;;;;;2.27;1.00;;;21.90;52.40;;;;;;5052608;28;20960;-90
2022/12/31 12:48:32;;;;;;;12.80;5.90;;;21.70;52.40;;;;;;5086710;28;20449;-87
2022/12/31 12:51:01;;;;;;;2.40;2.00;;;22.00;52.20;;;;;;5059970;28;20978;-90
2022/12/31 12:53:43;;;;;;;1.60;1.50;;;22.30;52.20;;;;;;5097623;28;20958;-89
2022/12/31 12:56:23;;;;;;;3.30;2.27;;;22.40;51.40;;;;;;5083925;27;20478;-89
2022/12/31 12:59:02;;;;;;;1.17;1.07;;;22.40;51.50;;;;;;5103703;27;20526;-89
2022/12/31 13:01:40;;;;;;;2.03;1.60;;;22.20;51.20;;;;;;5084977;28;20546;-89
2022/12/31 13:04:32;;;;;;;1.53;1.43;;;22.10;51.40;;;;;;5071707;28;20447;-89
2022/12/31 13:07:16;;;;;;;1.87;1.67;;;21.90;51.20;;;;;;5069041;28;20474;-89
2022/12/31 13:10:16;;;;;;;2.47;1.90;;;21.60;51.70;;;;;;5067529;28;20554;-90
2022/12/31 13:12:51;;;;;;;2.97;1.60;;;21.80;51.70;;;;;;5035351;28;20439;-89
2022/12/31 13:15:26;;;;;;;2.27;1.67;;;21.90;51.30;;;;;;5052012;28;20462;-90
2022/12/31 13:18:07;;;;;;;3.03;1.77;;;21.90;50.90;;;;;;5051882;28;20980;-89
2022/12/31 13:20:40;;;;;;;2.83;2.50;;;22.10;50.90;;;;;;5058842;28;20500;-89
2022/12/31 13:23:17;;;;;;;4.00;1.10;;;22.20;50.60;;;;;;5096366;28;20592;-89
2022/12/31 13:25:57;;;;;;;2.77;1.17;;;22.10;50.70;;;;;;5082793;28;20533;-87
2022/12/31 13:28:25;;;;;;;1.53;1.30;;;21.60;51.80;;;;;;5046970;28;20474;-87
2022/12/31 13:30:57;;;;;;;2.40;2.10;;;21.50;50.90;;;;;;5068608;28;20465;-89
2022/12/31 13:33:32;;;;;;;14.10;8.47;;;21.60;51.40;;;;;;5075040;28;20439;-88
2022/12/31 13:36:00;;;;;;;8.00;4.43;;;21.70;51.40;;;;;;5067583;28;20467;-89